Time;durP1;ratioP1;P1;durP2;ratioP2;P2;SDS_P1;SDS_P2;PMS_P1;PMS_P2;Temp;Humidity;BMP_temperature;BMP_pressure;BME280_temperature;BME280_humidity;BME280_pressure;Samples;Min_cycle;Max_cycle;Signal;HPM_P1;HPM_P2
2024/02/02 00:01:07;;;;;;;16.03;8.67;;;;;;;;;;5034388;28;20267;-78
2024/02/02 00:03:35;;;;;;;18.20;9.30;;;;;;;;;;5034521;28;20258;-79
2024/02/02 00:06:03;;;;;;;17.80;9.60;;;;;;;;;;5034172;28;20247;-79
2024/02/02 00:08:31;;;;;;;14.70;9.00;;;;;;;;;;5034646;28;20632;-79
2024/02/02 00:10:58;;;;;;;15.40;9.57;;;;;;;;;;5034659;28;20200;-78
2024/02/02 00:13:25;;;;;;;16.40;9.33;;;;;;;;;;5034104;28;20267;-78
2024/02/02 00:15:53;;;;;;;18.20;10.03;;;;;;;;;;5033922;28;20609;-78
2024/02/02 00:18:20;;;;;;;20.27;9.93;;;;;;;;;;5034406;28;20309;-79
2024/02/02 00:20:47;;;;;;;18.17;9.80;;;;;;;;;;5033751;28;20731;-76
2024/02/02 00:23:16;;;;;;;19.93;10.50;;;;;;;;;;5034362;28;20283;-77
2024/02/02 00:25:43;;;;;;;25.80;10.47;;;;;;;;;;5033666;28;20693;-78
2024/02/02 00:28:10;;;;;;;33.07;10.67;;;;;;;;;;5034314;28;20193;-78
2024/02/02 00:30:40;;;;;;;46.53;12.07;;;;;;;;;;5032847;28;20591;-78
2024/02/02 00:33:07;;;;;;;29.00;10.93;;;;;;;;;;5033977;28;20242;-77
2024/02/02 00:35:34;;;;;;;28.93;9.63;;;;;;;;;;5034033;28;20201;-78
2024/02/02 00:38:01;;;;;;;41.63;9.53;;;;;;;;;;5050163;28;20265;-78
2024/02/02 00:40:30;;;;;;;48.07;11.33;;;;;;;;;;5053598;28;20204;-78
2024/02/02 00:42:57;;;;;;;41.30;11.33;;;;;;;;;;5053618;28;20250;-78
2024/02/02 00:45:24;;;;;;;32.23;11.43;;;;;;;;;;5053265;28;20241;-78
2024/02/02 00:47:52;;;;;;;28.47;11.63;;;;;;;;;;5054048;28;20261;-78
2024/02/02 00:50:19;;;;;;;28.43;11.63;;;;;;;;;;5053686;28;20200;-79
2024/02/02 00:52:46;;;;;;;23.80;11.10;;;;;;;;;;5053612;28;20200;-78
2024/02/02 00:55:14;;;;;;;36.13;11.47;;;;;;;;;;5053321;28;20258;-78
2024/02/02 00:57:43;;;;;;;29.80;10.07;;;;;;;;;;5053305;28;20202;-78
2024/02/02 01:00:11;;;;;;;21.40;9.13;;;;;;;;;;5052855;28;20192;-79
2024/02/02 01:02:39;;;;;;;12.23;8.83;;;;;;;;;;5053093;28;20235;-78
2024/02/02 01:05:08;;;;;;;12.80;9.03;;;;;;;;;;5053412;28;20295;-78
2024/02/02 01:07:35;;;;;;;15.50;9.23;;;;;;;;;;5045719;28;20232;-79
2024/02/02 01:10:04;;;;;;;25.73;12.20;;;;;;;;;;5033382;28;20654;-77
2024/02/02 01:12:31;;;;;;;42.73;12.93;;;;;;;;;;5032924;28;20196;-79
2024/02/02 01:14:59;;;;;;;29.43;11.83;;;;;;;;;;5033132;28;20235;-79
2024/02/02 01:17:27;;;;;;;23.67;11.10;;;;;;;;;;5033449;28;20624;-79
2024/02/02 01:19:54;;;;;;;17.17;10.43;;;;;;;;;;5033104;28;20200;-79
2024/02/02 01:22:21;;;;;;;30.70;11.10;;;;;;;;;;5033014;28;20284;-78
2024/02/02 01:24:48;;;;;;;20.90;10.37;;;;;;;;;;5032999;28;20232;-79
2024/02/02 01:27:16;;;;;;;18.77;10.53;;;;;;;;;;5032843;28;20270;-79
2024/02/02 01:29:43;;;;;;;18.17;9.33;;;;;;;;;;5032889;28;20239;-78
2024/02/02 01:32:11;;;;;;;20.20;8.93;;;;;;;;;;5033073;28;20216;-79
2024/02/02 01:34:39;;;;;;;17.33;9.83;;;;;;;;;;5032747;28;20197;-78
2024/02/02 01:37:06;;;;;;;26.00;10.63;;;;;;;;;;5041398;28;20257;-79
2024/02/02 01:39:34;;;;;;;36.97;10.10;;;;;;;;;;5052752;28;20196;-78
2024/02/02 01:42:01;;;;;;;22.50;9.77;;;;;;;;;;5051312;28;20226;-79
2024/02/02 01:44:28;;;;;;;26.17;9.13;;;;;;;;;;5052632;28;20196;-78
2024/02/02 01:46:55;;;;;;;27.10;7.83;;;;;;;;;;5052754;28;20195;-78
2024/02/02 01:49:24;;;;;;;27.77;7.60;;;;;;;;;;5052385;28;20262;-77
2024/02/02 01:51:51;;;;;;;13.13;6.33;;;;;;;;;;5052382;28;20196;-78
2024/02/02 01:54:19;;;;;;;30.53;7.77;;;;;;;;;;5052077;28;20247;-79
2024/02/02 01:56:46;;;;;;;23.57;7.50;;;;;;;;;;5052359;28;20199;-79
2024/02/02 01:59:13;;;;;;;23.07;7.07;;;;;;;;;;5052347;28;20919;-78
2024/02/02 02:01:41;;;;;;;15.73;7.17;;;;;;;;;;5051871;28;20285;-79
2024/02/02 02:04:09;;;;;;;23.57;7.53;;;;;;;;;;5052315;28;20196;-78
2024/02/02 02:06:37;;;;;;;13.67;7.77;;;;;;;;;;5052132;28;20637;-77
2024/02/02 02:09:06;;;;;;;27.27;8.40;;;;;;;;;;5051800;28;20273;-77
2024/02/02 02:11:33;;;;;;;45.33;8.40;;;;;;;;;;5051541;28;20565;-78
2024/02/02 02:14:00;;;;;;;37.60;7.10;;;;;;;;;;5052122;28;20253;-78
2024/02/02 02:16:28;;;;;;;26.93;8.03;;;;;;;;;;5052707;28;20273;-78
2024/02/02 02:18:55;;;;;;;37.67;7.90;;;;;;;;;;5052022;28;20200;-78
2024/02/02 02:21:27;;;;;;;24.83;7.40;;;;;;;;;;5051437;28;20265;-76
2024/02/02 02:23:54;;;;;;;14.43;7.03;;;;;;;;;;5051804;28;20292;-78
2024/02/02 02:26:22;;;;;;;32.17;8.03;;;;;;;;;;5051286;28;20228;-78
2024/02/02 02:28:51;;;;;;;32.57;8.07;;;;;;;;;;5051487;28;20270;-77
2024/02/02 02:31:18;;;;;;;37.93;7.97;;;;;;;;;;5051480;28;20234;-78
2024/02/02 02:33:46;;;;;;;30.53;8.43;;;;;;;;;;5051977;28;20200;-79
2024/02/02 02:36:14;;;;;;;9.70;7.30;;;;;;;;;;5051641;28;20196;-79
2024/02/02 02:38:44;;;;;;;11.93;7.70;;;;;;;;;;5051426;28;20290;-78
2024/02/02 02:41:11;;;;;;;29.27;7.90;;;;;;;;;;5051371;28;20293;-78
2024/02/02 02:43:39;;;;;;;15.10;7.63;;;;;;;;;;5051269;28;20203;-78
2024/02/02 02:46:06;;;;;;;25.00;7.30;;;;;;;;;;5051242;28;20580;-78
2024/02/02 02:48:34;;;;;;;33.37;7.53;;;;;;;;;;5051578;28;20219;-78
2024/02/02 02:51:01;;;;;;;35.87;7.70;;;;;;;;;;5051512;28;20202;-78
2024/02/02 02:53:28;;;;;;;71.53;9.10;;;;;;;;;;5050985;28;20196;-78
2024/02/02 02:55:57;;;;;;;64.87;9.37;;;;;;;;;;5051085;28;20257;-78
2024/02/02 02:58:24;;;;;;;72.83;9.43;;;;;;;;;;5051392;28;20191;-77
2024/02/02 03:00:53;;;;;;;33.87;7.17;;;;;;;;;;5051458;28;20235;-78
2024/02/02 03:03:21;;;;;;;43.30;8.73;;;;;;;;;;5050940;28;20255;-77
2024/02/02 03:05:48;;;;;;;42.00;8.50;;;;;;;;;;5051451;28;20265;-76
2024/02/02 03:08:15;;;;;;;24.30;7.03;;;;;;;;;;5051369;28;20253;-78
2024/02/02 03:10:42;;;;;;;34.20;7.70;;;;;;;;;;5050855;28;20200;-78
2024/02/02 03:13:11;;;;;;;31.13;8.10;;;;;;;;;;5050467;28;20199;-77
2024/02/02 03:15:39;;;;;;;11.03;7.47;;;;;;;;;;5051564;28;20196;-78
2024/02/02 03:18:07;;;;;;;24.90;7.70;;;;;;;;;;5051061;28;20290;-76
2024/02/02 03:20:34;;;;;;;16.27;6.80;;;;;;;;;;5051008;28;20202;-76
2024/02/02 03:23:02;;;;;;;14.20;6.70;;;;;;;;;;5050408;28;20680;-78
2024/02/02 03:25:29;;;;;;;8.67;6.13;;;;;;;;;;5050872;28;20227;-78
2024/02/02 03:27:56;;;;;;;31.83;7.43;;;;;;;;;;5049229;28;20231;-78
2024/02/02 03:30:27;;;;;;;21.63;6.87;;;;;;;;;;5019008;28;20228;-77
2024/02/02 03:32:54;;;;;;;28.73;7.37;;;;;;;;;;5031458;28;20197;-78
2024/02/02 03:35:21;;;;;;;18.50;7.30;;;;;;;;;;5031018;28;20227;-78
2024/02/02 03:37:48;;;;;;;17.93;6.80;;;;;;;;;;5045453;28;20204;-78
2024/02/02 03:40:16;;;;;;;20.43;7.10;;;;;;;;;;5051088;28;20290;-78
2024/02/02 03:42:43;;;;;;;32.70;7.57;;;;;;;;;;5050616;28;20258;-77
2024/02/02 03:45:11;;;;;;;33.70;8.00;;;;;;;;;;5050673;28;20206;-77
2024/02/02 03:47:39;;;;;;;26.07;7.53;;;;;;;;;;5044568;28;20232;-78
2024/02/02 03:50:07;;;;;;;30.40;7.37;;;;;;;;;;5011392;28;20221;-78
2024/02/02 03:52:34;;;;;;;22.80;7.17;;;;;;;;;;5011334;28;20196;-78
2024/02/02 03:55:01;;;;;;;17.87;7.07;;;;;;;;;;5010829;28;20201;-78
2024/02/02 03:57:28;;;;;;;17.00;7.33;;;;;;;;;;5011281;28;20201;-79
2024/02/02 03:59:55;;;;;;;25.70;7.47;;;;;;;;;;5011036;28;20227;-77
2024/02/02 04:02:23;;;;;;;23.07;7.60;;;;;;;;;;5010857;28;20260;-77
2024/02/02 04:04:51;;;;;;;16.80;6.97;;;;;;;;;;5010903;28;20197;-77
2024/02/02 04:07:19;;;;;;;35.30;7.60;;;;;;;;;;5014382;28;20239;-78
2024/02/02 04:09:46;;;;;;;29.20;8.37;;;;;;;;;;5013476;28;20197;-77
2024/02/02 04:12:14;;;;;;;22.40;7.90;;;;;;;;;;5014722;28;20204;-78
2024/02/02 04:14:41;;;;;;;20.13;7.30;;;;;;;;;;5014647;28;20197;-78
2024/02/02 04:17:08;;;;;;;23.83;7.73;;;;;;;;;;5014557;28;20224;-77
2024/02/02 04:19:35;;;;;;;25.87;7.37;;;;;;;;;;5014356;28;20232;-77
2024/02/02 04:22:04;;;;;;;20.93;7.77;;;;;;;;;;5014238;28;20671;-77
2024/02/02 04:24:31;;;;;;;29.70;8.70;;;;;;;;;;5014062;28;20223;-78
2024/02/02 04:26:58;;;;;;;25.77;8.60;;;;;;;;;;5014535;28;20240;-77
2024/02/02 04:29:26;;;;;;;22.40;8.33;;;;;;;;;;5014809;28;20239;-77
2024/02/02 04:31:53;;;;;;;37.23;9.07;;;;;;;;;;5014119;28;20239;-78
2024/02/02 04:34:20;;;;;;;14.97;7.67;;;;;;;;;;5014187;28;20274;-77
2024/02/02 04:36:47;;;;;;;34.83;9.03;;;;;;;;;;5019478;28;20669;-78
2024/02/02 04:39:16;;;;;;;31.23;8.27;;;;;;;;;;5033830;28;20203;-78
2024/02/02 04:41:44;;;;;;;26.17;8.33;;;;;;;;;;5033768;28;20196;-77
2024/02/02 04:44:11;;;;;;;27.07;8.40;;;;;;;;;;5034319;28;20192;-78
2024/02/02 04:46:38;;;;;;;27.43;8.67;;;;;;;;;;5033424;28;20197;-78
2024/02/02 04:49:05;;;;;;;22.03;9.00;;;;;;;;;;5033762;28;20254;-78
2024/02/02 04:51:33;;;;;;;20.77;8.03;;;;;;;;;;5033353;28;20235;-78
2024/02/02 04:54:00;;;;;;;32.23;9.57;;;;;;;;;;5033623;28;20640;-76
2024/02/02 04:56:28;;;;;;;39.87;11.97;;;;;;;;;;5033540;28;20274;-77
2024/02/02 04:58:56;;;;;;;58.97;13.53;;;;;;;;;;5033656;28;20200;-78
2024/02/02 05:01:23;;;;;;;32.33;13.07;;;;;;;;;;5033378;28;20258;-78
2024/02/02 05:03:50;;;;;;;50.57;14.20;;;;;;;;;;5033470;28;20744;-78
2024/02/02 05:06:18;;;;;;;37.87;14.13;;;;;;;;;;5032986;28;20224;-78
2024/02/02 05:08:45;;;;;;;34.43;11.53;;;;;;;;;;5033343;28;20574;-78
2024/02/02 05:11:12;;;;;;;17.27;9.50;;;;;;;;;;5033328;28;20205;-76
2024/02/02 05:13:41;;;;;;;32.57;9.20;;;;;;;;;;5033280;28;20216;-77
2024/02/02 05:16:09;;;;;;;29.07;9.70;;;;;;;;;;5033135;28;20239;-78
2024/02/02 05:18:36;;;;;;;30.10;9.83;;;;;;;;;;5032906;28;20196;-78
2024/02/02 05:21:03;;;;;;;31.37;10.43;;;;;;;;;;5032815;28;20267;-76
2024/02/02 05:23:31;;;;;;;31.27;9.13;;;;;;;;;;5033242;28;20286;-76
2024/02/02 05:25:58;;;;;;;26.50;10.00;;;;;;;;;;5032401;28;20801;-78
2024/02/02 05:28:25;;;;;;;25.03;9.50;;;;;;;;;;5032704;28;20560;-77
2024/02/02 05:30:54;;;;;;;37.13;10.00;;;;;;;;;;5032842;28;20193;-78
2024/02/02 05:33:22;;;;;;;32.60;10.20;;;;;;;;;;5032637;28;20712;-77
2024/02/02 05:35:49;;;;;;;34.20;9.70;;;;;;;;;;5032620;28;20637;-77
2024/02/02 05:38:16;;;;;;;45.23;11.67;;;;;;;;;;5051223;28;20230;-78
2024/02/02 05:40:44;;;;;;;50.43;11.80;;;;;;;;;;5052788;28;20200;-78
2024/02/02 05:43:12;;;;;;;33.07;10.43;;;;;;;;;;5052400;28;20234;-77
2024/02/02 05:45:39;;;;;;;36.60;11.53;;;;;;;;;;5052396;28;20203;-77
2024/02/02 05:48:08;;;;;;;31.90;11.13;;;;;;;;;;5052535;28;20238;-78
2024/02/02 05:50:35;;;;;;;32.97;11.77;;;;;;;;;;5052410;28;20260;-79
2024/02/02 05:53:03;;;;;;;42.73;12.50;;;;;;;;;;5052401;28;20199;-78
2024/02/02 05:55:30;;;;;;;20.90;11.57;;;;;;;;;;5051921;28;20200;-78
2024/02/02 05:57:57;;;;;;;18.30;11.00;;;;;;;;;;5052496;28;20196;-78
2024/02/02 06:00:24;;;;;;;20.93;12.37;;;;;;;;;;5052813;28;20209;-78
2024/02/02 06:02:52;;;;;;;21.63;12.10;;;;;;;;;;5051426;28;20224;-78
2024/02/02 06:05:20;;;;;;;21.07;13.10;;;;;;;;;;5052234;28;20234;-79
2024/02/02 06:07:48;;;;;;;28.33;18.00;;;;;;;;;;5052085;28;20357;-80
2024/02/02 06:10:15;;;;;;;31.27;18.77;;;;;;;;;;5052291;28;20285;-80
2024/02/02 06:12:42;;;;;;;23.17;16.03;;;;;;;;;;5051896;28;20327;-79
2024/02/02 06:15:10;;;;;;;24.33;17.70;;;;;;;;;;5051674;28;20191;-80
2024/02/02 06:17:37;;;;;;;24.30;18.83;;;;;;;;;;5051586;28;20680;-80
2024/02/02 06:20:05;;;;;;;24.03;17.70;;;;;;;;;;5052079;28;20208;-80
2024/02/02 06:22:34;;;;;;;21.10;16.67;;;;;;;;;;5051601;28;20223;-80
2024/02/02 06:25:01;;;;;;;22.87;16.97;;;;;;;;;;5051794;28;20227;-79
2024/02/02 06:27:30;;;;;;;20.93;16.07;;;;;;;;;;5051663;28;20623;-79
2024/02/02 06:29:58;;;;;;;19.70;15.57;;;;;;;;;;5051639;28;20211;-79
2024/02/02 06:32:25;;;;;;;20.37;16.17;;;;;;;;;;5051006;28;20238;-79
2024/02/02 06:34:55;;;;;;;19.37;14.50;;;;;;;;;;5051769;28;20196;-79
2024/02/02 06:37:23;;;;;;;20.60;14.80;;;;;;;;;;5051172;28;20203;-80
2024/02/02 06:39:52;;;;;;;21.10;15.90;;;;;;;;;;5044021;28;20251;-79
2024/02/02 06:42:20;;;;;;;22.00;15.90;;;;;;;;;;5031274;28;20294;-79
2024/02/02 06:44:48;;;;;;;20.50;16.13;;;;;;;;;;5029565;28;20233;-79
2024/02/02 06:47:16;;;;;;;23.50;17.27;;;;;;;;;;5007071;28;20219;-80
2024/02/02 06:49:44;;;;;;;27.30;18.40;;;;;;;;;;5007541;28;20271;-79
2024/02/02 06:52:13;;;;;;;20.83;15.60;;;;;;;;;;5020566;28;20228;-79
2024/02/02 06:54:40;;;;;;;20.93;14.90;;;;;;;;;;5030136;28;20231;-79
2024/02/02 06:57:09;;;;;;;20.13;14.27;;;;;;;;;;5030646;28;20208;-79
2024/02/02 06:59:37;;;;;;;20.03;15.70;;;;;;;;;;5045183;28;20203;-79
2024/02/02 07:02:09;;;;;;;20.33;15.17;;;;;;;;;;5050767;28;20626;-80
2024/02/02 07:04:39;;;;;;;21.03;16.80;;;;;;;;;;5051025;28;20223;-79
2024/02/02 07:07:06;;;;;;;21.93;17.20;;;;;;;;;;5048740;28;20192;-79
2024/02/02 07:09:34;;;;;;;23.07;17.20;;;;;;;;;;5030251;28;20242;-79
2024/02/02 07:12:02;;;;;;;24.73;19.23;;;;;;;;;;5044896;28;20207;-80
2024/02/02 07:14:44;;;;;;;24.73;18.73;;;;;;;;;;5050809;28;20733;-79
2024/02/02 07:17:19;;;;;;;25.60;17.70;;;;;;;;;;5048494;28;20261;-79
2024/02/02 07:19:46;;;;;;;20.53;14.90;;;;;;;;;;5051089;28;20237;-79
2024/02/02 07:22:20;;;;;;;20.37;15.37;;;;;;;;;;5050551;28;20196;-79
2024/02/02 07:24:47;;;;;;;19.20;14.63;;;;;;;;;;5050263;28;20243;-80
2024/02/02 07:27:25;;;;;;;21.07;14.23;;;;;;;;;;5050687;28;20637;-79
2024/02/02 07:29:52;;;;;;;21.03;14.87;;;;;;;;;;5050143;28;20230;-79
2024/02/02 07:32:21;;;;;;;19.30;15.33;;;;;;;;;;5050594;28;20238;-79
2024/02/02 07:34:50;;;;;;;19.87;14.83;;;;;;;;;;5050505;28;20610;-79
2024/02/02 07:37:22;;;;;;;21.80;15.83;;;;;;;;;;5050436;28;20314;-79
2024/02/02 07:39:49;;;;;;;24.73;16.40;;;;;;;;;;5051119;28;20237;-80
2024/02/02 07:42:16;;;;;;;20.17;15.50;;;;;;;;;;5054965;28;20295;-79
2024/02/02 07:44:44;;;;;;;20.33;16.80;;;;;;;;;;5053947;28;20638;-80
2024/02/02 07:47:11;;;;;;;22.33;16.73;;;;;;;;;;5052998;28;20226;-80
2024/02/02 07:49:39;;;;;;;23.33;15.60;;;;;;;;;;5054379;28;20199;-81
2024/02/02 07:52:07;;;;;;;21.70;14.97;;;;;;;;;;5054185;28;20286;-82
2024/02/02 07:54:34;;;;;;;20.87;15.03;;;;;;;;;;5053788;28;20243;-81
2024/02/02 07:57:01;;;;;;;20.67;15.50;;;;;;;;;;5054653;28;20196;-80
2024/02/02 07:59:28;;;;;;;19.40;15.13;;;;;;;;;;5053983;28;20657;-81
2024/02/02 08:01:56;;;;;;;21.33;15.07;;;;;;;;;;5049609;28;20262;-78
2024/02/02 08:04:23;;;;;;;21.47;15.57;;;;;;;;;;5049551;28;20564;-79
2024/02/02 08:06:51;;;;;;;20.00;15.33;;;;;;;;;;5054188;28;20249;-79
2024/02/02 08:09:19;;;;;;;19.93;15.43;;;;;;;;;;5053979;28;20253;-79
2024/02/02 08:11:46;;;;;;;23.60;17.20;;;;;;;;;;5054318;28;20203;-80
2024/02/02 08:14:13;;;;;;;23.13;16.70;;;;;;;;;;5053925;28;20200;-79
2024/02/02 08:16:40;;;;;;;22.53;15.60;;;;;;;;;;5053732;28;20224;-79
2024/02/02 08:19:07;;;;;;;19.37;15.77;;;;;;;;;;5053455;28;20192;-79
2024/02/02 08:21:35;;;;;;;30.47;20.50;;;;;;;;;;5054049;28;20196;-80
2024/02/02 08:24:04;;;;;;;28.60;19.70;;;;;;;;;;5053541;28;20995;-79
2024/02/02 08:26:31;;;;;;;29.30;19.93;;;;;;;;;;5040988;28;20724;-79
2024/02/02 08:28:58;;;;;;;25.30;18.63;;;;;;;;;;5038065;28;20215;-79
2024/02/02 08:31:25;;;;;;;26.83;18.83;;;;;;;;;;5045938;28;20615;-79
2024/02/02 08:33:53;;;;;;;23.30;17.90;;;;;;;;;;5024672;28;20219;-79
2024/02/02 08:36:20;;;;;;;25.13;18.23;;;;;;;;;;5042663;28;20204;-79
2024/02/02 08:38:47;;;;;;;25.77;18.83;;;;;;;;;;5033613;28;20621;-78
2024/02/02 08:41:16;;;;;;;24.40;18.10;;;;;;;;;;5033674;28;20196;-79
2024/02/02 08:43:45;;;;;;;25.83;18.03;;;;;;;;;;5033064;28;20224;-81
2024/02/02 08:46:13;;;;;;;22.07;17.97;;;;;;;;;;5033709;28;20212;-80
2024/02/02 08:48:40;;;;;;;24.53;17.57;;;;;;;;;;5033419;28;20207;-80
2024/02/02 08:51:29;;;;;;;24.77;17.17;;;;;;;;;;5032318;28;20204;-80
2024/02/02 08:54:04;;;;;;;22.37;16.23;;;;;;;;;;5026866;28;20189;-79
2024/02/02 08:56:33;;;;;;;21.77;16.17;;;;;;;;;;5013370;28;20240;-80
2024/02/02 08:59:00;;;;;;;23.53;15.53;;;;;;;;;;5013226;28;20732;-80
2024/02/02 09:01:38;;;;;;;19.27;15.67;;;;;;;;;;5013768;28;20252;-80
2024/02/02 09:04:05;;;;;;;20.33;15.17;;;;;;;;;;5013190;28;20271;-80
2024/02/02 09:06:42;;;;;;;20.00;15.57;;;;;;;;;;5013472;28;20225;-80
2024/02/02 09:09:11;;;;;;;20.03;15.50;;;;;;;;;;5030834;28;20206;-80
2024/02/02 09:11:40;;;;;;;17.90;14.20;;;;;;;;;;5015647;28;20216;-80
2024/02/02 09:14:14;;;;;;;18.87;14.40;;;;;;;;;;5023495;28;20672;-80
2024/02/02 09:16:43;;;;;;;19.00;14.13;;;;;;;;;;5032936;28;20266;-80
2024/02/02 09:19:34;;;;;;;17.20;13.00;;;;;;;;;;5032828;28;20196;-80
2024/02/02 09:22:02;;;;;;;19.40;13.03;;;;;;;;;;5022050;28;20750;-80
2024/02/02 09:24:39;;;;;;;17.63;12.80;;;;;;;;;;5032166;28;20635;-81
2024/02/02 09:27:09;;;;;;;16.53;11.73;;;;;;;;;;5032427;28;20196;-79
2024/02/02 09:29:41;;;;;;;17.07;12.10;;;;;;;;;;5032743;28;20195;-80
2024/02/02 09:32:09;;;;;;;14.43;11.57;;;;;;;;;;5024871;28;20685;-80
2024/02/02 09:34:37;;;;;;;14.20;10.30;;;;;;;;;;5051581;28;20602;-81
2024/02/02 09:37:08;;;;;;;15.93;10.47;;;;;;;;;;5043518;28;20205;-80
2024/02/02 09:39:50;;;;;;;15.77;10.37;;;;;;;;;;5032446;28;20666;-80
2024/02/02 09:42:35;;;;;;;14.33;9.73;;;;;;;;;;5031973;28;20227;-80
2024/02/02 09:45:05;;;;;;;13.67;8.60;;;;;;;;;;5022172;28;20664;-80
2024/02/02 09:47:38;;;;;;;14.27;9.27;;;;;;;;;;5032239;28;20197;-80
2024/02/02 09:50:10;;;;;;;12.87;8.37;;;;;;;;;;5045795;28;20227;-82
2024/02/02 09:52:45;;;;;;;13.40;8.97;;;;;;;;;;5051641;28;20199;-81
2024/02/02 09:55:16;;;;;;;13.10;9.30;;;;;;;;;;5044510;28;20628;-81
2024/02/02 09:57:49;;;;;;;14.20;10.10;;;;;;;;;;5021302;28;20201;-81
2024/02/02 10:00:24;;;;;;;12.50;8.00;;;;;;;;;;5012488;28;20742;-81
2024/02/02 10:02:59;;;;;;;10.30;6.60;;;;;;;;;;5011622;28;20197;-81
2024/02/02 10:05:34;;;;;;;9.30;7.50;;;;;;;;;;5012218;28;20232;-81
2024/02/02 10:08:09;;;;;;;8.63;7.03;;;;;;;;;;5010517;28;20285;-81
2024/02/02 10:10:54;;;;;;;10.43;6.87;;;;;;;;;;5011507;28;20251;-80
2024/02/02 10:13:27;;;;;;;12.67;7.67;;;;;;;;;;5011590;28;20197;-81
2024/02/02 10:16:07;;;;;;;9.93;7.30;;;;;;;;;;5011834;28;20228;-81
2024/02/02 10:18:49;;;;;;;9.90;6.90;;;;;;;;;;5011863;28;20295;-79
2024/02/02 10:21:20;;;;;;;12.67;8.00;;;;;;;;;;5007390;28;20197;-80
2024/02/02 10:24:02;;;;;;;11.90;8.17;;;;;;;;;;5011545;28;20224;-80
2024/02/02 10:26:45;;;;;;;12.13;8.10;;;;;;;;;;5011800;28;20239;-80
2024/02/02 10:29:19;;;;;;;12.40;7.80;;;;;;;;;;5011667;28;20193;-79
2024/02/02 10:31:53;;;;;;;9.47;6.80;;;;;;;;;;5011718;28;20205;-80
2024/02/02 10:34:26;;;;;;;12.23;7.30;;;;;;;;;;5011573;28;20205;-80
2024/02/02 10:37:05;;;;;;;8.13;6.57;;;;;;;;;;5025596;28;20656;-79
2024/02/02 10:39:45;;;;;;;11.00;6.93;;;;;;;;;;5050794;28;20235;-80
2024/02/02 10:42:20;;;;;;;12.07;7.77;;;;;;;;;;5051337;28;20230;-80
2024/02/02 10:44:53;;;;;;;11.30;8.33;;;;;;;;;;5051268;28;20316;-80
2024/02/02 10:47:30;;;;;;;8.80;7.10;;;;;;;;;;5051105;28;20222;-80
2024/02/02 10:50:03;;;;;;;9.53;7.03;;;;;;;;;;5051040;28;20242;-79
2024/02/02 10:52:33;;;;;;;9.17;7.40;;;;;;;;;;5050526;28;20204;-80
2024/02/02 10:55:07;;;;;;;10.30;6.50;;;;;;;;;;5050830;28;20738;-79
2024/02/02 10:57:38;;;;;;;6.93;6.10;;;;;;;;;;5051423;28;20195;-80
2024/02/02 11:00:09;;;;;;;9.30;6.70;;;;;;;;;;5051250;28;20287;-80
2024/02/02 11:02:44;;;;;;;7.33;5.80;;;;;;;;;;5051177;28;20196;-79
2024/02/02 11:05:14;;;;;;;9.90;5.90;;;;;;;;;;5051040;28;20249;-79
2024/02/02 11:07:43;;;;;;;10.40;5.90;;;;;;;;;;5050716;28;20725;-80
2024/02/02 11:10:13;;;;;;;9.13;5.77;;;;;;;;;;5051141;28;20616;-79
2024/02/02 11:12:44;;;;;;;7.83;5.90;;;;;;;;;;5050481;28;20227;-79
2024/02/02 11:15:19;;;;;;;8.10;5.30;;;;;;;;;;5019064;28;20205;-80
2024/02/02 11:17:51;;;;;;;6.37;5.40;;;;;;;;;;5030723;28;20781;-80
2024/02/02 11:20:22;;;;;;;7.63;5.90;;;;;;;;;;5030317;28;20246;-80
2024/02/02 11:22:55;;;;;;;5.77;5.17;;;;;;;;;;5030211;28;20662;-80
2024/02/02 11:25:26;;;;;;;8.20;5.47;;;;;;;;;;5029476;28;20728;-80
2024/02/02 11:27:56;;;;;;;8.77;5.60;;;;;;;;;;5031259;28;20200;-79
2024/02/02 11:30:32;;;;;;;8.00;5.97;;;;;;;;;;5031139;28;20200;-80
2024/02/02 11:33:09;;;;;;;8.73;5.73;;;;;;;;;;5026992;28;20232;-79
2024/02/02 11:35:44;;;;;;;8.77;5.87;;;;;;;;;;5020693;28;20251;-79
2024/02/02 11:38:16;;;;;;;8.03;6.27;;;;;;;;;;5022489;28;20208;-79
2024/02/02 11:40:43;;;;;;;10.93;7.37;;;;;;;;;;5018744;28;20197;-78
2024/02/02 11:43:12;;;;;;;8.43;6.57;;;;;;;;;;5020199;28;20225;-80
2024/02/02 11:45:41;;;;;;;9.70;6.40;;;;;;;;;;5020905;28;20224;-80
2024/02/02 11:48:15;;;;;;;9.40;6.17;;;;;;;;;;5019927;28;20193;-80
2024/02/02 11:50:44;;;;;;;9.00;6.67;;;;;;;;;;5018624;28;20960;-79
2024/02/02 11:53:16;;;;;;;6.63;5.53;;;;;;;;;;5019644;28;20673;-79
2024/02/02 11:55:45;;;;;;;8.07;5.10;;;;;;;;;;5020844;28;20193;-78
2024/02/02 11:58:13;;;;;;;7.20;5.20;;;;;;;;;;5020313;28;20575;-79
2024/02/02 12:00:48;;;;;;;5.80;4.63;;;;;;;;;;5018717;28;20193;-80
2024/02/02 12:03:23;;;;;;;7.33;5.50;;;;;;;;;;5024070;28;20758;-79
2024/02/02 12:05:55;;;;;;;8.90;6.17;;;;;;;;;;5020242;28;20660;-79
2024/02/02 12:08:26;;;;;;;6.93;5.77;;;;;;;;;;5021377;28;20200;-79
2024/02/02 12:10:55;;;;;;;7.10;6.10;;;;;;;;;;5019823;28;20686;-79
2024/02/02 12:13:25;;;;;;;9.33;6.17;;;;;;;;;;5018255;28;20225;-79
2024/02/02 12:15:52;;;;;;;8.13;6.53;;;;;;;;;;5019292;28;20227;-79
2024/02/02 12:18:21;;;;;;;9.00;6.17;;;;;;;;;;5020728;28;20625;-79
2024/02/02 12:20:49;;;;;;;8.57;6.43;;;;;;;;;;5019374;28;20199;-80
2024/02/02 12:23:16;;;;;;;8.87;6.40;;;;;;;;;;5020038;28;20197;-79
2024/02/02 12:25:43;;;;;;;10.03;6.23;;;;;;;;;;5017971;28;20322;-79
2024/02/02 12:28:10;;;;;;;8.90;6.40;;;;;;;;;;5023087;28;20254;-79
2024/02/02 12:30:38;;;;;;;9.27;7.53;;;;;;;;;;5023503;28;20248;-79
2024/02/02 12:33:07;;;;;;;9.33;7.03;;;;;;;;;;5026802;28;20255;-79
2024/02/02 12:35:36;;;;;;;10.37;7.57;;;;;;;;;;5036488;28;20204;-80
2024/02/02 12:38:04;;;;;;;9.80;7.80;;;;;;;;;;5037238;28;20677;-81
2024/02/02 12:40:32;;;;;;;9.43;7.57;;;;;;;;;;5026530;28;20578;-80
2024/02/02 12:42:59;;;;;;;12.07;8.03;;;;;;;;;;5022081;28;20196;-80
2024/02/02 12:45:27;;;;;;;8.37;6.37;;;;;;;;;;5053772;28;20235;-81
2024/02/02 12:47:54;;;;;;;8.70;6.63;;;;;;;;;;5054015;28;20196;-79
2024/02/02 12:50:22;;;;;;;9.30;6.50;;;;;;;;;;5053041;28;20196;-80
2024/02/02 12:52:53;;;;;;;10.27;7.07;;;;;;;;;;5052521;28;20208;-80
2024/02/02 12:55:21;;;;;;;9.70;7.23;;;;;;;;;;5053042;28;20295;-80
2024/02/02 12:57:48;;;;;;;9.73;7.30;;;;;;;;;;5053391;28;20227;-79
2024/02/02 13:00:16;;;;;;;9.97;7.60;;;;;;;;;;5053530;28;20199;-80
2024/02/02 13:02:43;;;;;;;10.27;8.73;;;;;;;;;;5052914;28;20223;-79
2024/02/02 13:05:12;;;;;;;10.00;8.53;;;;;;;;;;5051655;28;20223;-78
2024/02/02 13:07:39;;;;;;;10.10;7.80;;;;;;;;;;5016923;28;20205;-80
2024/02/02 13:10:10;;;;;;;10.50;7.57;;;;;;;;;;5020446;28;20228;-80
2024/02/02 13:12:45;;;;;;;9.97;7.43;;;;;;;;;;5013299;28;20274;-80
2024/02/02 13:15:13;;;;;;;11.53;8.40;;;;;;;;;;5013810;28;20208;-79
2024/02/02 13:17:40;;;;;;;11.33;9.03;;;;;;;;;;5046906;28;20628;-79
2024/02/02 13:20:13;;;;;;;11.80;8.97;;;;;;;;;;5052966;28;20679;-80
2024/02/02 13:22:41;;;;;;;10.27;8.60;;;;;;;;;;5052885;28;20204;-80
2024/02/02 13:25:10;;;;;;;11.67;8.73;;;;;;;;;;5052426;28;20246;-79
2024/02/02 13:27:39;;;;;;;13.10;8.67;;;;;;;;;;5052696;28;20275;-80
2024/02/02 13:30:12;;;;;;;12.97;9.07;;;;;;;;;;5052734;28;20291;-78
2024/02/02 13:32:40;;;;;;;10.07;8.80;;;;;;;;;;5052525;28;20204;-79
2024/02/02 13:35:08;;;;;;;11.63;9.37;;;;;;;;;;5052271;28;20661;-80
2024/02/02 13:37:37;;;;;;;11.33;8.97;;;;;;;;;;5039523;28;20768;-80
2024/02/02 13:40:09;;;;;;;12.63;9.23;;;;;;;;;;5026641;28;20197;-79
2024/02/02 13:42:39;;;;;;;11.00;8.37;;;;;;;;;;5022641;28;21490;-79
2024/02/02 13:45:10;;;;;;;9.93;8.10;;;;;;;;;;5025892;28;20248;-79
2024/02/02 13:47:37;;;;;;;11.77;8.13;;;;;;;;;;5029069;28;20288;-79
2024/02/02 13:50:12;;;;;;;11.80;8.53;;;;;;;;;;5032047;28;20216;-81
2024/02/02 13:52:39;;;;;;;10.53;8.17;;;;;;;;;;5031465;28;20662;-81
2024/02/02 13:55:07;;;;;;;12.37;9.27;;;;;;;;;;5028604;28;20233;-82
2024/02/02 13:57:37;;;;;;;9.43;6.93;;;;;;;;;;5021283;28;20287;-80
2024/02/02 14:00:06;;;;;;;11.60;7.37;;;;;;;;;;5022810;28;20211;-81
2024/02/02 14:02:33;;;;;;;8.07;5.97;;;;;;;;;;5022059;28;20247;-81
2024/02/02 14:05:01;;;;;;;8.43;6.47;;;;;;;;;;5021041;28;20713;-81
2024/02/02 14:07:28;;;;;;;8.50;6.70;;;;;;;;;;5022306;28;20279;-81
2024/02/02 14:10:01;;;;;;;9.80;7.60;;;;;;;;;;5020464;28;20229;-81
2024/02/02 14:12:29;;;;;;;8.60;7.30;;;;;;;;;;5031581;28;20279;-81
2024/02/02 14:14:56;;;;;;;9.13;7.23;;;;;;;;;;5019491;28;20197;-81
2024/02/02 14:17:25;;;;;;;9.87;7.60;;;;;;;;;;5034093;28;20200;-81
2024/02/02 14:20:01;;;;;;;11.67;7.37;;;;;;;;;;5037178;28;20578;-81
2024/02/02 14:22:28;;;;;;;9.73;7.47;;;;;;;;;;5013821;28;20200;-81
2024/02/02 14:24:56;;;;;;;9.17;7.57;;;;;;;;;;5022944;28;20228;-81
2024/02/02 14:27:32;;;;;;;10.30;7.73;;;;;;;;;;5032153;28;20291;-81
2024/02/02 14:30:00;;;;;;;11.00;8.43;;;;;;;;;;5014411;28;20204;-81
2024/02/02 14:32:28;;;;;;;9.90;8.03;;;;;;;;;;5015435;28;20204;-81
2024/02/02 14:34:56;;;;;;;10.07;7.60;;;;;;;;;;5031722;28;20189;-80
2024/02/02 14:37:23;;;;;;;10.10;7.90;;;;;;;;;;5030260;28;20266;-81
2024/02/02 14:39:50;;;;;;;9.27;8.00;;;;;;;;;;5030668;28;20238;-80